Time;durP1;ratioP1;P1;durP2;ratioP2;P2;SDS_P1;SDS_P2;PMS_P1;PMS_P2;Temp;Humidity;BMP_temperature;BMP_pressure;BME280_temperature;BME280_humidity;BME280_pressure;Samples;Min_cycle;Max_cycle;Signal;HPM_P1;HPM_P2
2022/03/11 00:01:48;;;;;;;18.97;8.53;;;1.80;45.00;;;;;;5037880;28;20229;-58
2022/03/11 00:04:16;;;;;;;14.60;7.80;;;1.80;45.10;;;;;;5030174;28;20845;-58
2022/03/11 00:06:41;;;;;;;14.70;7.27;;;1.80;45.10;;;;;;5034571;28;20172;-58
2022/03/11 00:09:07;;;;;;;15.30;8.00;;;1.80;45.10;;;;;;5055290;28;20423;-57
2022/03/11 00:11:33;;;;;;;15.80;8.33;;;1.70;45.00;;;;;;5054277;28;20300;-58
2022/03/11 00:14:00;;;;;;;14.33;7.70;;;1.70;45.10;;;;;;5036475;28;20179;-58
2022/03/11 00:16:28;;;;;;;14.70;6.93;;;1.60;45.10;;;;;;5049199;28;20185;-58
2022/03/11 00:18:59;;;;;;;21.53;8.90;;;1.60;45.40;;;;;;5051949;28;20758;-57
2022/03/11 00:21:25;;;;;;;14.70;7.73;;;1.50;45.60;;;;;;5052547;28;20530;-57
2022/03/11 00:23:51;;;;;;;13.80;7.63;;;1.50;45.60;;;;;;5050377;28;20876;-57
2022/03/11 00:26:16;;;;;;;15.80;8.67;;;1.50;45.80;;;;;;5039011;28;20178;-58
2022/03/11 00:28:42;;;;;;;13.50;7.30;;;1.40;45.80;;;;;;5031586;28;20543;-58
2022/03/11 00:31:08;;;;;;;14.90;8.63;;;1.40;45.90;;;;;;5052529;28;20682;-59
2022/03/11 00:33:34;;;;;;;18.57;8.70;;;1.40;46.00;;;;;;5048581;28;20246;-58
2022/03/11 00:36:00;;;;;;;17.87;8.40;;;1.30;45.90;;;;;;5031510;28;20183;-57
2022/03/11 00:38:25;;;;;;;18.90;8.70;;;1.30;46.00;;;;;;5046999;28;20434;-58
2022/03/11 00:40:56;;;;;;;14.60;8.37;;;1.30;46.60;;;;;;5040505;28;20862;-58
2022/03/11 00:43:23;;;;;;;13.67;8.30;;;1.30;46.10;;;;;;5057822;28;20211;-58
2022/03/11 00:45:48;;;;;;;15.20;8.50;;;1.30;46.20;;;;;;5045373;28;20545;-58
2022/03/11 00:48:14;;;;;;;19.70;8.50;;;1.30;46.20;;;;;;5049943;28;20992;-58
2022/03/11 00:50:40;;;;;;;18.67;9.13;;;1.20;46.20;;;;;;5047761;28;20536;-58
2022/03/11 00:53:06;;;;;;;30.73;9.10;;;1.20;46.90;;;;;;5048907;28;20191;-58
2022/03/11 00:55:31;;;;;;;21.10;9.40;;;1.20;46.40;;;;;;5047383;28;20677;-58
2022/03/11 00:57:57;;;;;;;17.20;8.87;;;1.10;46.40;;;;;;5048482;28;20259;-58
2022/03/11 01:00:23;;;;;;;16.47;9.10;;;1.10;46.50;;;;;;5036072;28;20732;-58
2022/03/11 01:02:49;;;;;;;16.40;8.30;;;1.10;46.60;;;;;;5037873;28;20171;-58
2022/03/11 01:05:15;;;;;;;15.60;8.63;;;1.00;46.70;;;;;;5049830;28;20943;-58
2022/03/11 01:07:41;;;;;;;17.30;8.33;;;1.00;46.80;;;;;;5044330;28;20181;-58
2022/03/11 01:10:08;;;;;;;15.77;8.20;;;0.90;46.90;;;;;;5045568;28;20794;-57
2022/03/11 01:12:35;;;;;;;21.07;7.77;;;0.90;47.20;;;;;;5059263;28;20268;-57
2022/03/11 01:15:00;;;;;;;17.33;8.53;;;0.80;47.40;;;;;;5049211;28;20964;-58
2022/03/11 01:17:26;;;;;;;14.17;7.53;;;0.80;47.40;;;;;;5050524;28;20436;-58
2022/03/11 01:19:53;;;;;;;19.33;8.50;;;0.80;47.60;;;;;;5054345;28;20208;-58
2022/03/11 01:22:19;;;;;;;13.70;7.50;;;0.70;47.60;;;;;;5057928;28;20188;-58
2022/03/11 01:24:44;;;;;;;15.83;8.10;;;0.70;47.70;;;;;;5031022;28;20440;-58
2022/03/11 01:27:10;;;;;;;14.00;7.90;;;0.70;47.70;;;;;;5026851;28;20178;-58
2022/03/11 01:29:36;;;;;;;16.23;7.17;;;0.70;47.70;;;;;;5063725;28;20220;-57
2022/03/11 01:32:02;;;;;;;13.00;7.33;;;0.60;47.70;;;;;;5049848;28;20197;-58
2022/03/11 01:34:27;;;;;;;17.20;7.90;;;0.60;47.90;;;;;;5051655;28;20180;-58
2022/03/11 01:36:53;;;;;;;17.13;8.10;;;0.50;48.10;;;;;;5051353;28;20551;-58
2022/03/11 01:39:18;;;;;;;11.33;8.00;;;0.50;48.10;;;;;;5039137;28;20203;-57
2022/03/11 01:41:44;;;;;;;16.00;8.37;;;0.50;48.20;;;;;;5048565;28;20592;-58
2022/03/11 01:44:10;;;;;;;11.97;7.37;;;0.40;48.30;;;;;;5050603;28;20238;-58
2022/03/11 01:46:37;;;;;;;11.53;7.83;;;0.50;48.50;;;;;;5050721;28;20251;-58
2022/03/11 01:49:05;;;;;;;13.43;8.20;;;0.50;48.60;;;;;;5052101;28;20434;-57
2022/03/11 01:51:33;;;;;;;13.80;7.73;;;0.50;48.50;;;;;;5047995;28;20452;-58
2022/03/11 01:54:00;;;;;;;16.10;7.30;;;0.40;48.50;;;;;;5052053;28;20431;-58
2022/03/11 01:56:26;;;;;;;15.53;7.97;;;0.40;48.50;;;;;;5047355;28;20478;-58
2022/03/11 01:58:54;;;;;;;13.87;8.60;;;0.40;48.60;;;;;;5048248;28;20453;-58
2022/03/11 02:01:21;;;;;;;17.27;8.83;;;0.40;48.60;;;;;;5057868;28;20977;-58
2022/03/11 02:03:47;;;;;;;13.33;7.80;;;0.40;48.80;;;;;;5053507;28;20428;-58
2022/03/11 02:06:14;;;;;;;14.53;8.10;;;0.40;48.90;;;;;;5051119;28;20429;-58
2022/03/11 02:08:41;;;;;;;13.67;8.40;;;0.40;49.10;;;;;;5046124;28;20630;-58
2022/03/11 02:11:07;;;;;;;14.70;9.00;;;0.40;49.10;;;;;;5051597;28;20493;-57
2022/03/11 02:13:50;;;;;;;14.00;8.63;;;0.30;49.10;;;;;;5052847;28;20442;-58
2022/03/11 02:16:21;;;;;;;13.23;8.30;;;0.30;49.30;;;;;;5051542;28;20428;-57
2022/03/11 02:18:47;;;;;;;14.00;8.03;;;0.30;49.30;;;;;;5051728;28;20991;-58
2022/03/11 02:21:14;;;;;;;13.70;7.80;;;0.20;49.30;;;;;;5053957;28;20553;-57
2022/03/11 02:23:46;;;;;;;16.67;8.33;;;0.20;49.30;;;;;;5063924;28;20419;-58
2022/03/11 02:26:13;;;;;;;14.10;7.83;;;0.20;49.30;;;;;;5050146;28;20430;-58
2022/03/11 02:28:39;;;;;;;14.57;8.00;;;0.20;49.40;;;;;;5051018;28;20435;-59
2022/03/11 02:31:05;;;;;;;14.67;7.40;;;0.20;49.40;;;;;;5050996;28;20451;-59
2022/03/11 02:33:30;;;;;;;12.00;7.47;;;0.10;49.50;;;;;;5031075;28;20177;-58
2022/03/11 02:35:56;;;;;;;14.70;8.07;;;0.00;49.50;;;;;;5049202;28;20435;-58
2022/03/11 02:38:22;;;;;;;19.33;8.80;;;-0.10;49.60;;;;;;5050561;28;20216;-57
2022/03/11 02:40:47;;;;;;;12.87;8.43;;;-0.10;49.90;;;;;;5055741;28;20203;-59
2022/03/11 02:43:13;;;;;;;14.63;8.70;;;-0.10;50.10;;;;;;5052428;28;20177;-57
2022/03/11 02:45:39;;;;;;;14.30;7.73;;;-0.20;50.00;;;;;;5050132;28;20186;-59
2022/03/11 02:48:05;;;;;;;14.37;7.40;;;-0.20;50.00;;;;;;5053146;28;20230;-59
2022/03/11 02:50:31;;;;;;;14.57;7.50;;;-0.20;50.20;;;;;;5049499;28;20301;-59
2022/03/11 02:52:57;;;;;;;14.97;7.53;;;-0.20;50.30;;;;;;5042271;28;20968;-57
2022/03/11 02:55:23;;;;;;;12.13;8.03;;;-0.20;50.40;;;;;;5035866;28;20195;-58
2022/03/11 02:57:48;;;;;;;14.43;8.80;;;-0.20;50.40;;;;;;5050214;28;20219;-57
2022/03/11 03:00:14;;;;;;;11.97;7.40;;;-0.20;50.40;;;;;;5051424;28;20235;-59
2022/03/11 03:02:40;;;;;;;13.90;7.33;;;-0.20;50.60;;;;;;5054286;28;20224;-58
2022/03/11 03:05:07;;;;;;;16.97;8.30;;;-0.20;50.60;;;;;;5048865;28;20459;-59
2022/03/11 03:07:32;;;;;;;14.70;7.93;;;-0.20;50.50;;;;;;5049127;28;20179;-61
2022/03/11 03:09:58;;;;;;;12.80;7.33;;;-0.30;50.50;;;;;;5047575;28;20514;-58
2022/03/11 03:12:25;;;;;;;17.83;9.07;;;-0.30;50.60;;;;;;5054511;28;20212;-58
2022/03/11 03:14:51;;;;;;;14.37;8.10;;;-0.30;50.60;;;;;;5048162;28;20442;-56
2022/03/11 03:17:21;;;;;;;16.80;7.57;;;-0.30;50.70;;;;;;5047568;28;20438;-58
2022/03/11 03:19:48;;;;;;;16.43;8.40;;;-0.40;50.70;;;;;;5049136;28;20467;-58
2022/03/11 03:22:14;;;;;;;13.33;8.30;;;-0.40;50.90;;;;;;5038032;28;20477;-57
2022/03/11 03:24:40;;;;;;;15.03;8.30;;;-0.40;51.00;;;;;;5053373;28;20439;-58
2022/03/11 03:27:05;;;;;;;17.67;9.33;;;-0.40;51.00;;;;;;5049441;28;20439;-57
2022/03/11 03:29:31;;;;;;;16.37;9.30;;;-0.50;51.10;;;;;;5049002;28;20233;-58
2022/03/11 03:32:00;;;;;;;18.93;8.63;;;-0.50;51.20;;;;;;5049288;28;20230;-58
2022/03/11 03:34:30;;;;;;;15.27;7.97;;;-0.50;51.20;;;;;;5050179;28;20191;-57
2022/03/11 03:36:57;;;;;;;13.07;7.87;;;-0.60;51.30;;;;;;5032922;28;20582;-56
2022/03/11 03:39:23;;;;;;;15.80;8.70;;;-0.60;51.50;;;;;;5053150;28;20458;-58
2022/03/11 03:41:49;;;;;;;12.90;7.97;;;-0.60;51.50;;;;;;5048829;28;20450;-58
2022/03/11 03:44:14;;;;;;;18.23;8.30;;;-0.60;51.60;;;;;;5049148;28;20431;-58
2022/03/11 03:46:40;;;;;;;14.50;8.80;;;-0.70;51.70;;;;;;5049804;28;20526;-58
2022/03/11 03:49:06;;;;;;;16.30;7.80;;;-0.60;51.90;;;;;;5046925;28;20200;-58
2022/03/11 03:51:31;;;;;;;18.80;8.00;;;-0.70;51.70;;;;;;5049119;28;20204;-58
2022/03/11 03:53:57;;;;;;;12.83;7.50;;;-0.70;51.70;;;;;;5046673;28;20181;-59
2022/03/11 03:56:23;;;;;;;19.20;8.33;;;-0.70;51.80;;;;;;5047740;28;20438;-58
2022/03/11 03:58:48;;;;;;;15.73;8.43;;;-0.70;52.00;;;;;;5032780;28;20197;-58
2022/03/11 04:01:14;;;;;;;18.67;7.17;;;-0.80;52.10;;;;;;5050604;28;20212;-58
2022/03/11 04:03:40;;;;;;;16.80;8.50;;;-0.80;52.20;;;;;;5053770;28;20185;-59
2022/03/11 04:06:06;;;;;;;13.60;8.83;;;-0.80;52.20;;;;;;5048813;28;20660;-59
2022/03/11 04:08:32;;;;;;;13.90;8.30;;;-0.80;52.20;;;;;;5049810;28;20431;-59
2022/03/11 04:10:58;;;;;;;14.40;8.20;;;-0.80;52.10;;;;;;5050857;28;20220;-60
2022/03/11 04:13:23;;;;;;;10.43;7.40;;;-0.80;52.20;;;;;;5048994;28;20484;-59
2022/03/11 04:15:49;;;;;;;16.27;8.30;;;-0.80;52.20;;;;;;5052794;28;20643;-58
2022/03/11 04:18:15;;;;;;;15.80;8.53;;;-0.80;52.20;;;;;;5046724;28;20185;-59
2022/03/11 04:20:41;;;;;;;14.93;8.17;;;-0.80;52.20;;;;;;5048128;28;20290;-59
2022/03/11 04:23:07;;;;;;;15.47;8.03;;;-0.90;52.10;;;;;;5051549;28;20231;-60
2022/03/11 04:25:33;;;;;;;15.00;8.70;;;-0.90;52.10;;;;;;5049326;28;20176;-58
2022/03/11 04:27:59;;;;;;;15.10;8.67;;;-0.90;52.20;;;;;;5053357;28;20443;-58
2022/03/11 04:30:24;;;;;;;13.50;7.50;;;-1.00;52.30;;;;;;5046849;28;20455;-60
2022/03/11 04:32:50;;;;;;;12.37;7.87;;;-1.00;52.50;;;;;;5046056;28;20457;-58
2022/03/11 04:35:16;;;;;;;14.77;9.50;;;-1.00;52.60;;;;;;5046307;28;20180;-59
2022/03/11 04:37:41;;;;;;;15.03;7.87;;;-1.10;52.70;;;;;;5046841;28;20550;-59
2022/03/11 04:40:08;;;;;;;17.37;8.50;;;-1.10;52.80;;;;;;5039982;28;20669;-58
2022/03/11 04:42:34;;;;;;;12.53;7.90;;;-1.10;53.00;;;;;;5052606;28;20177;-58
2022/03/11 04:45:00;;;;;;;16.23;9.03;;;-1.10;53.60;;;;;;5050174;28;20446;-59
2022/03/11 04:47:26;;;;;;;17.20;8.57;;;-1.10;53.20;;;;;;5034933;28;20438;-59
2022/03/11 04:49:52;;;;;;;18.63;9.30;;;-1.10;53.30;;;;;;5049059;28;21232;-58
2022/03/11 04:52:18;;;;;;;18.67;8.83;;;-1.20;53.30;;;;;;5029690;28;20845;-59
2022/03/11 04:54:44;;;;;;;15.73;8.63;;;-1.20;53.30;;;;;;5047510;28;22255;-55
2022/03/11 04:57:09;;;;;;;14.07;8.57;;;-1.30;53.20;;;;;;5053540;28;20196;-54
2022/03/11 04:59:35;;;;;;;14.60;8.27;;;-1.30;53.30;;;;;;5051618;28;20575;-54
2022/03/11 05:02:01;;;;;;;16.60;9.50;;;-1.30;54.00;;;;;;5054532;28;20206;-53
2022/03/11 05:04:26;;;;;;;16.80;9.30;;;-1.40;53.50;;;;;;5056804;28;20249;-58
2022/03/11 05:06:52;;;;;;;18.23;8.67;;;-1.40;53.60;;;;;;5037749;28;20656;-59
2022/03/11 05:09:17;;;;;;;16.60;8.60;;;-1.50;53.60;;;;;;5037697;28;20179;-59
2022/03/11 05:11:43;;;;;;;20.30;8.63;;;-1.50;53.70;;;;;;5049111;28;20222;-59
2022/03/11 05:14:09;;;;;;;17.23;8.63;;;-1.50;53.90;;;;;;5044019;28;20203;-59
2022/03/11 05:16:34;;;;;;;18.10;9.13;;;-1.50;54.00;;;;;;5046761;28;20595;-59
2022/03/11 05:19:00;;;;;;;20.00;9.40;;;-1.60;54.00;;;;;;5046991;28;20560;-58
2022/03/11 05:21:25;;;;;;;15.77;8.90;;;-1.60;54.00;;;;;;5030249;28;20241;-59
2022/03/11 05:23:51;;;;;;;21.63;9.40;;;-1.60;54.00;;;;;;5044855;28;20225;-59
2022/03/11 05:26:27;;;;;;;18.77;9.30;;;-1.60;53.90;;;;;;5033387;28;20181;-60
2022/03/11 05:28:55;;;;;;;18.30;8.70;;;-1.60;54.00;;;;;;5045237;28;20617;-60
2022/03/11 05:31:21;;;;;;;16.57;9.70;;;-1.60;54.10;;;;;;5050347;28;20711;-60
2022/03/11 05:33:48;;;;;;;18.30;9.30;;;-1.60;54.10;;;;;;5043275;28;20643;-59
2022/03/11 05:36:14;;;;;;;16.83;8.97;;;-1.60;53.90;;;;;;5047377;28;20440;-60
2022/03/11 05:38:40;;;;;;;16.73;10.00;;;-1.60;54.00;;;;;;5048555;28;20458;-59
2022/03/11 05:41:06;;;;;;;15.17;9.40;;;-1.60;54.10;;;;;;5047836;28;20532;-60
2022/03/11 05:43:31;;;;;;;17.77;9.50;;;-1.60;54.30;;;;;;5049350;28;20389;-57
2022/03/11 05:45:57;;;;;;;19.60;9.53;;;-1.60;54.50;;;;;;5049418;28;20177;-59
2022/03/11 05:48:22;;;;;;;24.87;10.63;;;-1.60;54.70;;;;;;5045174;28;20179;-59
2022/03/11 05:50:48;;;;;;;21.33;10.37;;;-1.60;54.80;;;;;;5047181;28;20565;-57
2022/03/11 05:53:15;;;;;;;24.37;10.60;;;-1.60;54.90;;;;;;5047236;28;20237;-59
2022/03/11 05:55:41;;;;;;;24.20;10.70;;;-1.60;54.90;;;;;;5045264;28;20187;-57
2022/03/11 05:58:07;;;;;;;21.10;11.60;;;-1.70;55.10;;;;;;5045413;28;20470;-59
2022/03/11 06:00:32;;;;;;;39.93;11.47;;;-1.70;55.10;;;;;;5043056;28;20471;-58
2022/03/11 06:02:58;;;;;;;25.23;11.77;;;-1.70;55.20;;;;;;5047353;28;20204;-59
2022/03/11 06:05:24;;;;;;;43.33;14.60;;;-1.70;55.10;;;;;;5050265;28;20193;-59
2022/03/11 06:07:50;;;;;;;22.30;12.03;;;-1.70;55.10;;;;;;5031576;28;20181;-60
2022/03/11 06:10:15;;;;;;;21.10;12.57;;;-1.70;55.10;;;;;;5045447;28;20553;-59
2022/03/11 06:12:41;;;;;;;24.33;11.77;;;-1.70;55.20;;;;;;5044935;28;21037;-59
2022/03/11 06:15:08;;;;;;;22.43;11.10;;;-1.70;55.30;;;;;;5044039;28;20650;-59
2022/03/11 06:17:34;;;;;;;16.83;8.87;;;-1.70;55.30;;;;;;5046425;28;20263;-56
2022/03/11 06:19:59;;;;;;;17.33;9.93;;;-1.70;55.50;;;;;;5041047;28;20916;-58
2022/03/11 06:22:25;;;;;;;17.43;9.80;;;-1.70;55.60;;;;;;5046282;28;20252;-57
2022/03/11 06:24:51;;;;;;;17.10;9.70;;;-1.70;55.70;;;;;;5048300;28;20271;-56
2022/03/11 06:27:19;;;;;;;19.93;9.83;;;-1.70;55.80;;;;;;5049269;28;20201;-57
2022/03/11 06:29:45;;;;;;;24.30;11.00;;;-1.70;56.00;;;;;;5045372;28;20212;-57
2022/03/11 06:32:10;;;;;;;19.90;11.30;;;-1.70;56.10;;;;;;5031803;28;20770;-58
2022/03/11 06:34:37;;;;;;;32.50;10.33;;;-1.70;56.10;;;;;;5050906;28;20175;-59
2022/03/11 06:37:03;;;;;;;23.73;11.10;;;-1.70;56.10;;;;;;5048371;28;20246;-59
2022/03/11 06:39:28;;;;;;;23.80;10.60;;;-1.60;56.30;;;;;;5045290;28;20444;-58
2022/03/11 06:41:54;;;;;;;24.50;12.03;;;-1.60;56.30;;;;;;5047844;28;20442;-58
2022/03/11 06:44:20;;;;;;;20.63;10.80;;;-1.50;56.40;;;;;;5050169;28;20258;-58
2022/03/11 06:46:45;;;;;;;18.67;10.30;;;-1.40;56.40;;;;;;5029474;28;20204;-58
2022/03/11 06:49:11;;;;;;;19.60;11.03;;;-1.30;56.40;;;;;;5049100;28;20197;-56
2022/03/11 06:51:38;;;;;;;24.90;11.07;;;-1.30;56.50;;;;;;5028559;28;20276;-58
2022/03/11 06:54:06;;;;;;;18.53;10.23;;;-1.20;56.50;;;;;;5039196;28;20182;-59
2022/03/11 06:56:32;;;;;;;19.17;10.10;;;-1.10;56.60;;;;;;5030880;28;20431;-58
2022/03/11 06:58:59;;;;;;;21.80;11.57;;;-1.00;56.70;;;;;;5050936;28;20466;-58
2022/03/11 07:01:24;;;;;;;21.63;10.80;;;-1.00;56.70;;;;;;5049680;28;20552;-59
2022/03/11 07:03:50;;;;;;;21.63;10.83;;;-0.90;56.80;;;;;;5046270;28;20919;-60
2022/03/11 07:06:16;;;;;;;23.47;11.60;;;-0.80;57.00;;;;;;5048987;28;20355;-59
2022/03/11 07:08:41;;;;;;;19.93;10.87;;;-0.70;57.00;;;;;;5044042;28;20431;-59
2022/03/11 07:11:07;;;;;;;16.40;10.77;;;-0.60;56.80;;;;;;5032317;28;20218;-59
2022/03/11 07:13:34;;;;;;;21.40;10.57;;;-0.60;56.60;;;;;;5047951;28;20233;-59
2022/03/11 07:15:59;;;;;;;22.13;11.40;;;-0.50;56.80;;;;;;5047658;28;20600;-60
2022/03/11 07:18:25;;;;;;;23.20;11.20;;;-0.40;56.80;;;;;;5031815;28;20426;-59
2022/03/11 07:20:51;;;;;;;21.93;11.07;;;-0.30;56.70;;;;;;5048688;28;20711;-57
2022/03/11 07:23:16;;;;;;;24.67;11.73;;;-0.20;56.50;;;;;;5046748;28;20641;-59
2022/03/11 07:25:42;;;;;;;23.97;11.67;;;-0.10;56.30;;;;;;5044962;28;20553;-59
2022/03/11 07:28:07;;;;;;;32.47;12.67;;;0.00;56.30;;;;;;5045358;28;20187;-58
2022/03/11 07:30:33;;;;;;;27.77;13.67;;;0.10;56.20;;;;;;5046367;28;20295;-59
2022/03/11 07:33:01;;;;;;;20.57;12.17;;;0.10;56.10;;;;;;5051221;28;20178;-59
2022/03/11 07:35:27;;;;;;;24.20;12.57;;;0.20;56.20;;;;;;5052092;28;20181;-59
2022/03/11 07:37:52;;;;;;;43.47;12.77;;;0.30;56.30;;;;;;5052512;28;20427;-59
2022/03/11 07:40:18;;;;;;;42.60;12.30;;;0.30;56.50;;;;;;5048050;28;20486;-58
2022/03/11 07:42:44;;;;;;;50.13;13.00;;;0.40;56.40;;;;;;5047415;28;20744;-58
2022/03/11 07:45:12;;;;;;;49.50;13.60;;;0.50;56.30;;;;;;5049267;28;20184;-59
2022/03/11 07:47:38;;;;;;;27.97;13.63;;;0.60;56.20;;;;;;5045624;28;20279;-58
2022/03/11 07:50:05;;;;;;;31.50;14.83;;;0.70;56.30;;;;;;5048164;28;21006;-58
2022/03/11 07:52:30;;;;;;;28.33;14.80;;;0.80;56.40;;;;;;5046008;28;20848;-59
2022/03/11 07:54:56;;;;;;;33.43;15.40;;;0.90;56.50;;;;;;5049054;28;20436;-58
2022/03/11 07:57:21;;;;;;;37.63;16.57;;;1.00;56.60;;;;;;5049318;28;20177;-59
2022/03/11 07:59:47;;;;;;;34.10;15.90;;;1.10;56.80;;;;;;5042880;28;20208;-59
2022/03/11 08:02:15;;;;;;;34.53;16.67;;;1.20;57.00;;;;;;5047416;28;20185;-59
2022/03/11 08:04:42;;;;;;;32.90;17.83;;;1.40;57.00;;;;;;5042964;28;20212;-60
2022/03/11 08:07:11;;;;;;;31.67;16.30;;;1.50;56.80;;;;;;5060226;28;20420;-60
2022/03/11 08:09:38;;;;;;;30.60;15.83;;;1.60;56.60;;;;;;5047232;28;20435;-58
2022/03/11 08:12:04;;;;;;;41.90;18.40;;;1.70;56.50;;;;;;5029021;28;20939;-60
2022/03/11 08:14:31;;;;;;;34.30;18.03;;;1.80;56.30;;;;;;5044663;28;20489;-60
2022/03/11 08:16:56;;;;;;;38.03;17.23;;;2.00;56.20;;;;;;5044729;28;20520;-60
2022/03/11 08:19:23;;;;;;;27.47;16.23;;;2.10;55.90;;;;;;5029522;28;20512;-60
2022/03/11 08:21:50;;;;;;;34.07;16.97;;;2.20;55.40;;;;;;5047375;28;22023;-59
2022/03/11 08:24:16;;;;;;;32.47;16.13;;;2.30;55.00;;;;;;5026673;28;20423;-59
2022/03/11 08:26:42;;;;;;;38.33;16.53;;;2.40;54.60;;;;;;5044380;28;20452;-58
2022/03/11 08:29:08;;;;;;;39.00;17.23;;;2.50;54.40;;;;;;5042650;28;20170;-60
2022/03/11 08:31:33;;;;;;;30.90;16.97;;;2.60;54.20;;;;;;5046428;28;20568;-60
2022/03/11 08:33:59;;;;;;;33.10;17.00;;;2.70;54.40;;;;;;5047359;28;20195;-59
2022/03/11 08:36:24;;;;;;;30.20;16.60;;;2.80;53.90;;;;;;5051761;28;20183;-60
2022/03/11 08:38:50;;;;;;;32.07;18.20;;;2.90;53.70;;;;;;5050743;28;20194;-59
2022/03/11 08:41:16;;;;;;;35.33;17.47;;;3.10;53.50;;;;;;5039817;28;20210;-60
2022/03/11 08:43:43;;;;;;;32.87;17.30;;;3.10;53.50;;;;;;5043384;28;20443;-60
2022/03/11 08:46:12;;;;;;;30.00;17.10;;;3.30;53.80;;;;;;5024126;28;20441;-59
2022/03/11 08:48:38;;;;;;;36.50;17.47;;;3.40;53.60;;;;;;5045478;28;20451;-59
2022/03/11 08:51:06;;;;;;;30.10;17.30;;;3.60;53.50;;;;;;5041373;28;20524;-59
2022/03/11 08:53:32;;;;;;;37.43;18.23;;;3.70;53.20;;;;;;5042676;28;21013;-59
2022/03/11 08:55:57;;;;;;;39.07;18.60;;;3.80;52.90;;;;;;5044290;28;20441;-59
2022/03/11 08:58:23;;;;;;;37.20;18.10;;;3.90;53.00;;;;;;5048012;28;20426;-60
2022/03/11 09:00:49;;;;;;;35.50;17.70;;;4.10;52.80;;;;;;5047797;28;20584;-59
2022/03/11 09:03:15;;;;;;;32.97;17.40;;;4.20;52.60;;;;;;5027334;28;20682;-59
2022/03/11 09:05:40;;;;;;;35.03;17.83;;;4.40;52.50;;;;;;5040026;28;20183;-60
2022/03/11 09:08:09;;;;;;;33.10;18.23;;;4.50;52.20;;;;;;5031271;28;20209;-60
2022/03/11 09:10:36;;;;;;;30.87;16.97;;;4.60;52.10;;;;;;5047308;28;20840;-59
2022/03/11 09:13:02;;;;;;;27.53;17.10;;;4.80;52.00;;;;;;5055193;28;20948;-60
2022/03/11 09:15:28;;;;;;;32.17;16.83;;;4.90;51.50;;;;;;5047769;28;20502;-59
2022/03/11 09:17:54;;;;;;;29.90;17.57;;;5.00;51.30;;;;;;5046402;28;20445;-59
2022/03/11 09:20:20;;;;;;;37.00;18.50;;;5.10;50.20;;;;;;5029383;28;21074;-60
2022/03/11 09:22:45;;;;;;;36.87;18.33;;;5.30;50.40;;;;;;5043246;28;20440;-60
2022/03/11 09:25:12;;;;;;;27.60;16.90;;;5.40;50.60;;;;;;5047656;28;20179;-59
2022/03/11 09:27:39;;;;;;;43.03;19.03;;;5.60;50.30;;;;;;5027401;28;20605;-60
2022/03/11 09:30:06;;;;;;;32.50;17.50;;;5.70;50.30;;;;;;5045400;28;20460;-60
2022/03/11 09:32:32;;;;;;;30.50;16.57;;;5.80;49.80;;;;;;5046681;28;20953;-58
2022/03/11 09:34:59;;;;;;;43.93;17.50;;;6.00;49.80;;;;;;5054621;28;20440;-60
2022/03/11 09:37:26;;;;;;;27.33;16.10;;;6.20;49.80;;;;;;5063592;28;21131;-61
2022/03/11 09:39:53;;;;;;;31.17;17.50;;;6.30;49.10;;;;;;5049722;28;20962;-60
2022/03/11 09:42:18;;;;;;;32.97;17.37;;;6.50;48.80;;;;;;5049894;28;20508;-60
2022/03/11 09:44:53;;;;;;;29.40;17.20;;;6.60;48.70;;;;;;5052154;28;20536;-58
2022/03/11 09:47:20;;;;;;;39.40;16.97;;;6.70;48.40;;;;;;5052264;28;20217;-60
2022/03/11 09:49:48;;;;;;;28.33;17.37;;;6.90;48.30;;;;;;5034007;28;20464;-60
2022/03/11 09:52:16;;;;;;;29.70;16.73;;;7.00;47.80;;;;;;5057923;28;20436;-60
2022/03/11 09:54:45;;;;;;;28.50;16.20;;;7.10;47.90;;;;;;5051105;28;20874;-60
2022/03/11 09:57:12;;;;;;;31.33;17.47;;;7.30;48.20;;;;;;5030096;28;20437;-59
2022/03/11 09:59:38;;;;;;;29.40;17.07;;;7.40;47.80;;;;;;5046989;28;20989;-60
2022/03/11 10:02:12;;;;;;;51.93;17.43;;;7.60;47.30;;;;;;5045215;28;20468;-59
2022/03/11 10:04:43;;;;;;;30.77;16.07;;;7.70;46.00;;;;;;5048792;28;20175;-61
2022/03/11 10:07:27;;;;;;;31.00;16.83;;;7.80;46.40;;;;;;5049961;28;20438;-60
2022/03/11 10:09:55;;;;;;;28.47;16.13;;;8.00;46.50;;;;;;5045939;28;20449;-60
2022/03/11 10:12:26;;;;;;;24.23;15.03;;;8.10;46.30;;;;;;5047574;28;20429;-59
2022/03/11 10:15:03;;;;;;;32.37;15.63;;;8.20;45.60;;;;;;5050451;28;20429;-60
2022/03/11 10:17:38;;;;;;;29.97;17.10;;;8.40;45.70;;;;;;5047100;28;20468;-59
2022/03/11 10:20:05;;;;;;;28.33;15.40;;;8.60;45.40;;;;;;5043608;28;20469;-58
2022/03/11 10:22:32;;;;;;;29.57;16.00;;;8.70;44.60;;;;;;5035995;28;20446;-61
2022/03/11 10:25:21;;;;;;;29.40;16.20;;;8.90;45.00;;;;;;5030686;28;20453;-61
2022/03/11 10:27:56;;;;;;;26.27;15.97;;;9.00;44.60;;;;;;5025219;28;20949;-60
2022/03/11 10:30:22;;;;;;;25.10;15.03;;;9.20;44.80;;;;;;5026912;28;20845;-61
2022/03/11 10:32:58;;;;;;;29.50;15.40;;;9.40;44.40;;;;;;5024794;28;20958;-58
2022/03/11 10:35:36;;;;;;;30.07;15.73;;;9.60;42.10;;;;;;5044549;28;20911;-58
2022/03/11 10:38:09;;;;;;;26.50;16.43;;;9.60;42.20;;;;;;5025070;28;20503;-61
2022/03/11 10:40:49;;;;;;;26.60;15.50;;;9.70;42.20;;;;;;5028875;28;20535;-60
2022/03/11 10:43:22;;;;;;;26.40;15.87;;;9.80;42.60;;;;;;5045821;28;20837;-59
2022/03/11 10:45:49;;;;;;;27.00;15.53;;;10.10;41.60;;;;;;5027308;28;20426;-59
2022/03/11 10:48:16;;;;;;;25.33;16.17;;;10.20;41.00;;;;;;5044022;28;20591;-59
2022/03/11 10:50:43;;;;;;;31.53;16.70;;;10.30;40.00;;;;;;5043757;28;20977;-60
2022/03/11 10:53:11;;;;;;;25.87;15.67;;;10.50;41.10;;;;;;5029057;28;20433;-57
2022/03/11 10:55:40;;;;;;;34.60;16.03;;;10.80;40.60;;;;;;5040024;28;20431;-57
2022/03/11 10:58:07;;;;;;;31.00;15.80;;;11.00;40.00;;;;;;5044010;28;20457;-58
2022/03/11 11:00:40;;;;;;;32.47;16.50;;;11.10;39.70;;;;;;5010670;28;20532;-60
2022/03/11 11:03:08;;;;;;;34.60;17.60;;;11.40;40.20;;;;;;5043955;28;20575;-58
2022/03/11 11:05:35;;;;;;;27.80;16.63;;;11.60;39.60;;;;;;5043390;28;20429;-59
2022/03/11 11:08:04;;;;;;;29.20;16.00;;;11.80;39.00;;;;;;5049083;28;20443;-60
2022/03/11 11:10:31;;;;;;;31.93;16.70;;;11.90;38.50;;;;;;5045280;28;20869;-60
2022/03/11 11:12:57;;;;;;;26.60;16.63;;;12.10;38.50;;;;;;5042665;28;20433;-60
2022/03/11 11:15:23;;;;;;;34.50;17.23;;;12.30;38.30;;;;;;5043876;28;20430;-60
2022/03/11 11:17:51;;;;;;;28.53;15.17;;;12.40;38.30;;;;;;5028848;28;20269;-60
2022/03/11 11:20:46;;;;;;;28.23;15.10;;;12.60;38.60;;;;;;5044796;28;20464;-60
2022/03/11 11:23:14;;;;;;;23.40;15.27;;;12.80;37.60;;;;;;5000333;28;20425;-61
2022/03/11 11:25:41;;;;;;;36.13;17.10;;;13.10;37.40;;;;;;5040277;28;20517;-62
2022/03/11 11:28:18;;;;;;;33.27;15.47;;;13.40;37.30;;;;;;5045579;28;20438;-61
2022/03/11 11:30:45;;;;;;;34.00;18.03;;;13.70;36.60;;;;;;5042591;28;20547;-61
2022/03/11 11:33:15;;;;;;;27.37;17.07;;;13.90;34.90;;;;;;5041676;28;20441;-61
2022/03/11 11:35:43;;;;;;;29.10;16.03;;;14.20;35.10;;;;;;5041777;28;20532;-63
2022/03/11 11:38:39;;;;;;;28.00;16.20;;;14.60;34.60;;;;;;5043503;28;20418;-61
2022/03/11 11:41:25;;;;;;;28.80;15.90;;;15.00;33.40;;;;;;5009844;28;20494;-61
2022/03/11 11:44:02;;;;;;;35.00;17.33;;;15.50;33.10;;;;;;5041380;28;20426;-58
2022/03/11 11:46:33;;;;;;;26.30;17.03;;;15.90;31.90;;;;;;5033453;28;20503;-56
2022/03/11 11:49:07;;;;;;;25.83;15.83;;;16.30;31.30;;;;;;5040870;28;20418;-59
2022/03/11 11:51:36;;;;;;;30.17;16.77;;;16.60;31.20;;;;;;5041786;28;20466;-57
2022/03/11 11:54:11;;;;;;;27.63;16.03;;;16.80;31.70;;;;;;5042703;28;20445;-59
2022/03/11 11:56:38;;;;;;;34.33;17.50;;;17.10;31.10;;;;;;5025257;28;20425;-57
2022/03/11 11:59:24;;;;;;;28.80;16.80;;;17.30;31.00;;;;;;5040209;28;20465;-58
2022/03/11 12:01:56;;;;;;;30.57;16.50;;;17.40;30.00;;;;;;5040355;28;20992;-58
2022/03/11 12:04:33;;;;;;;29.53;16.77;;;17.60;29.60;;;;;;5022789;28;21055;-59
2022/03/11 12:07:15;;;;;;;23.23;14.80;;;17.70;29.10;;;;;;5039645;28;21010;-56
2022/03/11 12:09:41;;;;;;;25.97;14.77;;;17.70;27.70;;;;;;5021704;28;20833;-55
2022/03/11 12:12:36;;;;;;;26.23;16.33;;;17.90;28.00;;;;;;5037685;28;20433;-56
2022/03/11 12:15:01;;;;;;;28.70;15.50;;;18.10;27.60;;;;;;5038758;28;21474;-58
2022/03/11 12:17:37;;;;;;;25.60;15.37;;;18.10;25.90;;;;;;5036333;28;20517;-56
2022/03/11 12:20:21;;;;;;;28.30;16.40;;;18.10;26.50;;;;;;5037713;28;20810;-58
2022/03/11 12:23:09;;;;;;;26.17;17.17;;;18.30;27.30;;;;;;5044090;28;20436;-55
2022/03/11 12:25:37;;;;;;;29.60;16.10;;;18.50;27.10;;;;;;5039425;28;20461;-57
2022/03/11 12:28:04;;;;;;;33.43;17.50;;;18.50;26.50;;;;;;5041917;28;20423;-55
2022/03/11 12:30:41;;;;;;;35.67;16.17;;;18.40;26.50;;;;;;5039766;28;21092;-56
2022/03/11 12:33:40;;;;;;;29.20;15.83;;;18.40;27.00;;;;;;5043228;28;20472;-60
2022/03/11 12:36:10;;;;;;;27.73;16.83;;;18.30;26.60;;;;;;5036948;28;20434;-60
2022/03/11 12:38:39;;;;;;;28.77;13.67;;;18.30;26.60;;;;;;5041836;28;21036;-59